Agness, Oregon
Current Conditions -  °F | °C
As of 10:23 AM on Friday 19 Dec 2014 (Local Time) from KBOK Reporting Station
Light Rain Light Rain  
Wind Chill: 50°   Ceiling: 5500
Heat Index: 50°   Visibility: 6mi
Dew Point: 50°   Wind: 5mph
Humidity: 100%   Direction: 130°SE
Pressure: 30.07"   Gusts: NA
Location:  42.56°N, 124.07°W
Report Text: KBOK 191823Z AUTO 13004KT 6SM -RA BR FEW011 SCT020 BKN055 10/10 A3007 RMK AO2 BKN V SCT RAB07 P0000
Loading
Personal Weather Stations






























Interactive Weather Map New forecast layout! Learn more

10-Day Weather Forecast

Advertisements
Track Severe Weather on mobile